Station: Macquarie Island  

  Atmospheric Gas Attenuation - ITU Rec 676-11   ----------------- dB/100km -----------------
Date Time Temp RH % AH g/m3 Dew Point Wind Direction Speed kph Gust kph Barometer mB Rainfall Since 9am 24GHz 47GHz 76GHz 122GHz 134GHz 241GHz
05/09 21:50 1.9 70 3.87 -3 39 57 993.9 0.2 9.9 20.8 25.3 66.0 47.1 157.2
05/09 21:40 2 72 4.01 -2.5 39 56 993.6 0.2 10.2 21.0 25.8 67.3 48.8 163.2
05/09 21:30 1.8 70 3.84 -3.1 37 57 993.5 0.2 9.8 20.8 25.2 65.7 46.8 156.0
05/09 21:20 1.7 73 3.98 -2.6 30 54 993.3 0.2 10.1 21.0 25.8 67.2 48.6 162.4
05/09 21:10 1.7 73 3.98 -2.6 30 59 993.1 0.2 10.1 21.0 25.8 67.2 48.6 162.4
05/09 21:00 1.7 74 4.03 -2.4 35 59 992.9 0.2 10.2 21.1 26.0 67.7 49.2 164.6
05/09 20:50 1.6 75 4.06 -2.3 35 56 992.7 0.2 10.3 21.1 26.1 68.1 49.6 166.1
05/09 20:40 1.3 84 4.46 -1.1 37 50 992.5 0.2 11.2 21.8 27.7 72.5 55.0 184.8
05/09 20:30 0.7 83 4.23 -1.8 41 65 992.4 0.2 10.7 21.6 27.0 70.6 52.4 175.6
05/09 20:20 1.7 79 4.31 -1.5 37 46 992.1 0.2 10.8 21.5 27.0 70.5 52.7 177.0
05/09 20:10 1.7 74 4.03 -2.4 41 61 992.1 0.2 10.2 21.0 25.9 67.6 49.2 164.4
05/09 20:00 1.7 74 4.03 -2.4 43 57 991.9 0.2 10.2 21.0 25.9 67.6 49.1 164.4
05/09 19:50 1.8 72 3.95 -2.7 43 54 991.6 0.2 10.0 20.9 25.6 66.7 48.1 160.6
05/09 19:40 1.7 76 4.14 -2.1 39 54 991.5 0.2 10.5 21.2 26.3 68.7 50.5 169.3
05/09 19:30 1.7 77 4.2 -1.9 39 56 991.4 0.2 10.6 21.3 26.5 69.3 51.3 171.9
05/09 19:20 1.8 73 4.01 -2.5 39 65 991.1 0.2 10.2 20.9 25.8 67.2 48.8 163.2
05/09 19:10 1.6 73 3.95 -2.7 33 57 990.9 0.2 10.0 20.9 25.6 66.8 48.1 160.9
05/09 19:00 1.7 72 3.92 -2.8 41 67 990.7 0.2 10.0 20.8 25.5 66.4 47.7 159.4
05/09 18:50 1.6 72 3.9 -2.9 41 65 990.7 0.2 9.9 20.8 25.4 66.3 47.5 158.7
05/09 18:40 1.7 73 3.98 -2.6 41 61 990.5 0.2 10.1 20.9 25.7 67.0 48.4 162.0
05/09 18:30 1.6 78 4.22 -1.8 43 63 990.1 0.2 10.6 21.3 26.6 69.5 51.5 172.8
05/09 18:20 1.7 80 4.36 -1.4 43 57 990 0.2 10.9 21.5 27.1 70.8 53.3 178.9
05/09 18:10 1.3 81 4.3 -1.6 35 59 989.7 0.2 10.8 21.5 27.0 70.5 52.7 177.0
05/09 18:00 1.4 78 4.17 -2 39 57 989.3 0.2 10.5 21.2 26.5 69.1 51.0 170.9
05/09 17:50 1.8 76 4.17 -2 44 61 989.3 0.2 10.5 21.1 26.3 68.7 50.7 170.0
05/09 17:40 1.8 73 4.01 -2.5 48 61 989 0.2 10.2 20.9 25.7 67.1 48.7 162.9
05/09 17:30 1.5 82 4.41 -1.2 41 72 988.7 0.2 11.0 21.5 27.3 71.4 54.0 181.4
05/09 17:20 1 86 4.47 -1.1 44 65 988.6 0.2 11.2 21.8 27.7 72.5 55.1 185.3
05/09 17:10 1.7 80 4.36 -1.4 44 69 988.3 0.2 10.9 21.4 27.0 70.7 53.2 178.6
05/09 17:00 1.7 78 4.25 -1.7 43 61 988.2 0.2 10.7 21.2 26.6 69.5 51.8 173.7
05/09 16:50 1.7 79 4.31 -1.5 44 65 988 0.2 10.8 21.3 26.8 70.1 52.5 176.3
05/09 16:40 2 75 4.17 -2 48 61 987.8 0.2 10.5 21.0 26.2 68.4 50.5 169.4
05/09 16:30 1.9 78 4.31 -1.5 46 67 987.7 0.2 10.8 21.3 26.8 69.9 52.4 175.8
05/09 16:20 2.1 76 4.26 -1.7 44 61 987.4 0.2 10.7 21.1 26.5 69.2 51.6 173.1
05/09 16:10 1.9 80 4.42 -1.2 46 63 987.3 0.2 11.1 21.4 27.2 71.0 53.8 180.7
05/09 16:00 2.1 77 4.31 -1.5 44 69 986.9 0.2 10.8 21.2 26.7 69.7 52.2 175.3
05/09 15:50 1.9 74 4.09 -2.2 46 65 987 0.2 10.3 20.9 25.9 67.6 49.5 165.9
05/09 15:40 2.1 73 4.09 -2.2 46 59 986.6 0.2 10.3 20.8 25.8 67.4 49.4 165.4
05/09 15:30 1.8 76 4.17 -2 48 76 986.4 0.2 10.5 21.0 26.2 68.5 50.6 169.6
05/09 15:20 2.1 74 4.14 -2 44 69 986.3 0.2 10.4 20.9 26.0 67.9 50.0 167.6
05/09 15:10 2.1 76 4.26 -1.7 44 69 986.1 0.2 10.7 21.1 26.4 69.1 51.5 172.9
05/09 15:00 1.8 75 4.12 -2.1 43 70 986 0.2 10.4 20.9 26.0 67.9 49.9 167.3
05/09 14:50 2.1 74 4.14 -2 44 69 985.7 0.2 10.4 20.9 26.0 67.9 50.0 167.5
05/09 14:40 2.6 70 4.06 -2.3 48 67 985.6 0.2 10.2 20.6 25.5 66.6 48.7 162.9
05/09 14:30 2.3 71 4.03 -2.4 46 67 985.3 0.2 10.2 20.6 25.5 66.5 48.5 162.2
05/09 14:20 2.4 70 4 -2.5 48 74 985.1 0.2 10.1 20.6 25.3 66.1 48.0 160.6
05/09 14:10 2.5 70 4.03 -2.4 46 65 985.1 0.2 10.2 20.6 25.4 66.3 48.3 161.8
05/09 14:00 2.6 73 4.23 -1.7 44 67 984.8 0.2 10.6 20.9 26.1 68.3 50.7 170.3
05/09 13:50 2.3 71 4.03 -2.4 44 69 984.7 0.2 10.2 20.6 25.5 66.5 48.4 162.1
05/09 13:40 2.5 70 4.03 -2.4 50 69 984.6 0.2 10.2 20.6 25.4 66.3 48.3 161.7
05/09 13:30 2.6 70 4.06 -2.3 52 78 984.4 0.2 10.2 20.6 25.5 66.5 48.6 162.8
05/09 13:20 2.2 72 4.06 -2.3 52 72 984 0.2 10.3 20.7 25.6 66.8 48.8 163.5
05/09 13:10 2.4 71 4.06 -2.3 52 69 983.9 0.2 10.3 20.6 25.5 66.6 48.7 163.1
05/09 13:00 2.4 67 3.83 -3.1 54 83 983.9 0.2 9.8 20.3 24.6 64.3 45.9 153.1
05/09 12:50 2.6 72 4.17 -1.9 48 74 983.2 0.2 10.5 20.7 25.8 67.5 49.9 167.4
05/09 12:40 2.5 70 4.03 -2.4 54 76 983.2 0.2 10.2 20.5 25.3 66.2 48.2 161.5
05/09 12:30 2.2 72 4.06 -2.3 52 78 983.3 0.2 10.3 20.6 25.6 66.8 48.8 163.4
05/09 12:20 2.4 71 4.06 -2.3 54 72 983.2 0.2 10.3 20.6 25.5 66.6 48.7 163.0
05/09 12:10 2.7 69 4.02 -2.4 52 76 982.8 0.2 10.2 20.4 25.2 65.9 48.0 160.6
05/09 12:00 2.6 68 3.94 -2.7 52 76 982.7 0.2 10.0 20.3 25.0 65.2 47.0 157.3
05/09 11:50 2.7 72 4.2 -1.8 52 82 982.4 0.2 10.5 20.7 25.9 67.7 50.2 168.4
05/09 11:40 2.6 72 4.17 -1.9 56 74 982.4 0.2 10.5 20.7 25.8 67.5 49.9 167.3
05/09 11:30 2.9 73 4.32 -1.5 52 74 982 0.2 10.8 20.8 26.3 68.7 51.5 173.2
05/09 11:20 3.1 74 4.43 -1.1 50 72 981.7 0.2 11.0 20.9 26.6 69.6 52.8 177.5
05/09 11:10 3 77 4.58 -0.6 48 78 981.5 0.2 11.4 21.2 27.2 71.2 54.7 184.4
05/09 11:00 3.1 75 4.49 -0.9 50 70 981.4 0.2 11.2 21.0 26.8 70.2 53.5 180.1
05/09 10:50 2.9 76 4.49 -0.9 54 70 981.1 0.2 11.2 21.1 26.9 70.3 53.6 180.5
05/09 10:40 2.9 78 4.61 -0.5 50 69 980.9 0.2 11.4 21.2 27.3 71.5 55.1 185.8
05/09 10:30 2.7 75 4.37 -1.3 50 70 980.9 0.2 10.9 20.9 26.5 69.3 52.2 175.6
05/09 10:20 2.5 82 4.72 -0.3 50 67 980.5 0.2 11.7 21.5 27.9 73.0 56.8 191.6
05/09 10:10 2.2 89 5.02 0.6 50 59 980.5 0.2 12.3 22.0 29.2 76.4 60.9 206.0
05/09 10:00 1.8 88 4.83 0 46 69 980.4 0.2 11.9 21.8 28.5 74.8 58.7 198.3
05/09 09:50 2.5 81 4.66 -0.4 43 76 980.4 0 11.5 21.4 27.6 72.4 56.0 188.9
05/09 09:40 3.4 84 5.14 1 39 50 980 0 12.6 21.9 29.2 76.5 61.5 208.2
05/09 09:30 3.1 82 4.91 0.3 41 52 979.8 0 12.1 21.6 28.4 74.4 58.8 198.6
05/09 09:20 2.9 82 4.85 0.1 46 56 979.7 0 11.9 21.6 28.2 73.9 58.1 196.4
05/09 09:10 2.7 77 4.49 -0.9 44 61 979.6 0 11.2 21.0 26.9 70.4 53.7 180.7
05/09 09:00 3.1 70 4.19 -1.8 43 56 979.3 0 10.5 20.5 25.6 67.0 49.7 166.6
05/09 08:50 3.2 71 4.28 -1.5 44 57 979 2.8 10.7 20.6 25.9 67.8 50.7 170.3
05/09 08:40 2.8 71 4.17 -1.9 46 72 978.8 2.8 10.5 20.5 25.6 67.0 49.6 166.3
05/09 08:30 2.7 73 4.26 -1.6 46 59 978.9 2.8 10.7 20.7 26.0 68.0 50.8 170.5
05/09 08:20 2.7 76 4.43 -1.1 46 57 978.6 2.8 11.0 20.9 26.6 69.7 52.9 177.9
05/09 08:10 1.9 85 4.7 -0.3 43 56 978.7 2.8 11.7 21.5 27.9 73.2 56.9 191.9
05/09 08:00 1.7 89 4.85 0.1 43 61 978.4 2.8 12.0 21.8 28.6 74.9 59.0 199.2
05/09 07:50 2.3 87 4.94 0.4 41 48 978.3 2.6 12.2 21.8 28.7 75.3 59.7 201.7
05/09 07:40 1.9 87 4.81 0 43 48 978 2.6 11.9 21.7 28.3 74.3 58.3 196.8
05/09 07:30 1.1 87 4.55 -0.8 50 69 978.2 2.6 11.3 21.5 27.6 72.3 55.5 186.9
05/09 07:20 2.1 78 4.37 -1.3 44 72 978.2 2 10.9 21.0 26.6 69.6 52.5 176.5
05/09 07:10 2.6 78 4.52 -0.8 43 54 977.6 2 11.2 21.0 27.0 70.6 54.0 182.0
05/09 07:00 2.4 81 4.63 -0.5 46 56 977.6 2 11.5 21.3 27.4 71.9 55.6 187.3
05/09 06:50 2.2 81 4.57 -0.7 46 57 977.4 2 11.4 21.2 27.3 71.5 54.9 185.1
05/09 06:40 1.7 87 4.74 -0.2 39 52 977.3 2 11.7 21.6 28.1 73.7 57.5 193.9
05/09 06:30 1 86 4.47 -1.1 46 65 977.4 2 11.2 21.3 27.3 71.5 54.5 183.4
05/09 06:20 2.2 84 4.74 -0.2 41 52 976.7 1.8 11.7 21.5 27.9 73.2 57.1 192.6
05/09 06:10 1.9 85 4.7 -0.3 41 54 976.7 1.8 11.6 21.5 27.9 73.0 56.8 191.5
05/09 06:00 2 85 4.73 -0.2 41 50 976.5 1.8 11.7 21.5 27.9 73.2 57.1 192.6
05/09 05:50 1.9 82 4.53 -0.8 46 69 976.5 1.8 11.3 21.2 27.2 71.2 54.6 183.9
05/09 05:40 2.2 81 4.57 -0.7 48 65 976.6 1.8 11.4 21.2 27.2 71.4 54.9 185.0
05/09 05:30 2.6 69 4 -2.5 46 59 976.2 1.8 10.1 20.2 24.9 65.2 47.5 158.9
05/09 05:20 2.6 73 4.23 -1.7 44 59 976.1 1.8 10.6 20.5 25.8 67.5 50.3 168.9

Last Refresh: 05-Sep-2026 21:26:43

Bureau of Meteorology